Jamaica, Vermont
Current Conditions -  °F | °C
As of 2:54 AM on Sunday 26 Oct 2014 (Local Time) from KVSF Reporting Station
Haze Haze  
Wind Chill: 40°   Ceiling: 300
Heat Index: 40°   Visibility: 0.75mi
Dew Point: 40°   Wind: 0mph
Humidity: 100%   Direction: NA
Pressure: 29.46"   Gusts: NA
Location:  43.1°N, 72.78°W
Report Text: KVSF 260654Z AUTO 00000KT 3/4SM BR VV003 04/04 A2946 RMK AO2 SLP976 T00440044
Loading
Personal Weather Stations






























Interactive Weather Map
Tropical Storm Tracking
New forecast layout! Learn more

10-Day Weather Forecast

Advertisements
Track Severe Weather on mobile